Pagrindinis puslapis
METAR-TAF:

METAR-TAF

Oro uostai :

Jonšiopingas, Švedija

platuma: 57-46N, ilguma: 014-05E, Aukštis: 226 m

Dabartinis oras

Ataskaita buvo paskelbta 11 minutes, ne 04:50 UTC
Ramus vėjas
Temperatūra 9°C
Drėgmė 71%
Slėgis 1030 hPa
Matomumas 10 km arba daugiau

METAR: ESGJ 290450Z AUTO 00000KT 9999 NCD 09/04 Q1030

Laikas: 07:01 (05:01 UTC)

Prognozė

Ataskaita buvo paskelbta 31 minutes, ne 04:30 UTC
Prognozė galioja nuo 29 metu 05 UTC su 29 metu 12 UTC
Vėjas 4 kt iš Šiaurės
Matomumas 10 km arba daugiau
nėra debesų žemiau 1500 m ir nėra kamuolinių lietaus debesų

TAF: ESGJ 290430Z 2905/2912 01004KT CAVOK

Orai ataskaitas ir orų prognozės (METAR, TAF).

turimą stotys yra geltonos ir raudonos taškus žemėlapyje.

Perkelti pele per norėdami pamatyti stoties vardą.

Tada spustelėkite, norėdami matyti oro stebėjimo ir prognozės.

Norėdami pakeisti žemėlapį: spustelėkite ant žalios mygtukų su juodo kryžiaus žemyn,; žalią mygtuką su brūkšneliu, jei norite nutolinti; arba žalių rodyklių gretimoms žemėlapius.


METAR-TAF: